createdAt,value
2022-12-06T00:01:18.677Z,51.54
2022-12-06T00:03:48.516Z,51.53
2022-12-06T00:06:19.286Z,51.74
2022-12-06T00:08:47.065Z,51.53
2022-12-06T00:11:19.560Z,51.81
2022-12-06T00:13:46.543Z,51.34
2022-12-06T00:16:16.670Z,52.11
2022-12-06T00:18:44.947Z,52.00
2022-12-06T00:21:12.808Z,52.15
2022-12-06T00:23:42.157Z,51.71
2022-12-06T00:26:09.898Z,51.63
2022-12-06T00:28:37.475Z,52.33
2022-12-06T00:31:07.096Z,52.41
2022-12-06T00:33:35.102Z,51.80
2022-12-06T00:36:04.766Z,51.99
2022-12-06T00:38:31.430Z,52.26
2022-12-06T00:41:00.925Z,52.13
2022-12-06T00:43:27.898Z,52.04
2022-12-06T00:45:56.693Z,52.20
2022-12-06T00:48:23.407Z,51.58
2022-12-06T00:50:50.354Z,51.77
2022-12-06T00:53:17.439Z,51.70
2022-12-06T00:55:44.773Z,51.99
2022-12-06T00:58:12.097Z,51.62
2022-12-06T01:00:40.702Z,51.72
2022-12-06T01:03:07.760Z,51.79
2022-12-06T01:05:34.614Z,52.21
2022-12-06T01:08:01.241Z,52.01
2022-12-06T01:10:29.559Z,51.91
2022-12-06T01:12:56.062Z,52.56
2022-12-06T01:15:22.573Z,52.64
2022-12-06T01:17:49.250Z,52.42
2022-12-06T01:20:15.653Z,52.27
2022-12-06T01:22:42.043Z,52.81
2022-12-06T01:25:08.739Z,52.38
2022-12-06T01:27:35.046Z,52.16
2022-12-06T01:30:01.762Z,52.52
2022-12-06T01:32:30.051Z,52.65
2022-12-06T01:34:56.520Z,52.59
2022-12-06T01:37:24.361Z,52.77
2022-12-06T01:39:50.852Z,52.63
2022-12-06T01:42:17.330Z,51.89
2022-12-06T01:44:47.259Z,52.08
2022-12-06T01:47:19.426Z,52.28
2022-12-06T01:49:54.008Z,52.08
2022-12-06T01:52:24.459Z,52.65
2022-12-06T01:54:50.983Z,52.48
2022-12-06T01:57:18.000Z,52.07
2022-12-06T01:59:45.421Z,52.88
2022-12-06T02:02:13.005Z,52.13
2022-12-06T02:04:40.279Z,52.50
2022-12-06T02:07:07.773Z,52.31
2022-12-06T02:09:36.007Z,52.39
2022-12-06T02:12:02.378Z,51.98
2022-12-06T02:14:32.822Z,52.21
2022-12-06T02:17:25.727Z,52.26
2022-12-06T02:20:13.284Z,52.39
2022-12-06T02:23:19.197Z,52.77
2022-12-06T02:25:51.665Z,52.23
2022-12-06T02:28:28.589Z,52.76
2022-12-06T02:31:00.107Z,52.12
2022-12-06T02:33:40.039Z,52.81
2022-12-06T02:36:31.964Z,52.90
2022-12-06T02:39:06.733Z,53.08
2022-12-06T02:41:47.681Z,52.76
2022-12-06T02:44:39.658Z,52.31
2022-12-06T02:47:09.193Z,52.14
2022-12-06T02:49:38.689Z,52.62
2022-12-06T02:52:05.709Z,52.39
2022-12-06T02:54:32.286Z,52.02
2022-12-06T02:56:58.787Z,52.81
2022-12-06T02:59:25.328Z,52.79
2022-12-06T03:01:58.420Z,53.17
2022-12-06T03:04:52.653Z,53.03
2022-12-06T03:07:35.486Z,53.06
2022-12-06T03:10:40.949Z,53.02
2022-12-06T03:13:19.782Z,52.64
2022-12-06T03:15:59.998Z,53.11
2022-12-06T03:18:34.088Z,52.73
2022-12-06T03:21:23.971Z,53.27
2022-12-06T03:23:51.506Z,52.75
2022-12-06T03:26:25.398Z,53.15
2022-12-06T03:28:56.272Z,52.25
2022-12-06T03:31:25.409Z,52.84
2022-12-06T03:34:15.792Z,52.60
2022-12-06T03:36:44.783Z,52.00
2022-12-06T03:39:15.503Z,52.82
2022-12-06T03:41:53.817Z,52.43
2022-12-06T03:44:21.581Z,52.44
2022-12-06T03:46:51.535Z,52.87
2022-12-06T03:49:24.755Z,52.48
2022-12-06T03:51:51.276Z,52.81
2022-12-06T03:54:17.744Z,52.60
2022-12-06T03:56:45.839Z,53.08
2022-12-06T03:59:12.156Z,52.98
2022-12-06T04:01:39.225Z,53.09
2022-12-06T04:04:06.175Z,52.76
2022-12-06T04:06:32.804Z,52.81
2022-12-06T04:09:19.166Z,52.69
2022-12-06T04:11:46.373Z,52.51
2022-12-06T04:14:12.795Z,52.92
2022-12-06T04:16:57.981Z,52.44
2022-12-06T04:19:24.347Z,52.43
2022-12-06T04:22:09.352Z,52.17
2022-12-06T04:24:36.138Z,52.47
2022-12-06T04:27:22.184Z,52.62
2022-12-06T04:30:07.198Z,52.14
2022-12-06T04:32:51.892Z,52.88
2022-12-06T04:35:36.725Z,52.65
2022-12-06T04:38:21.546Z,52.98
2022-12-06T04:40:48.182Z,51.90
2022-12-06T04:43:33.232Z,52.83
2022-12-06T04:45:59.639Z,52.02
2022-12-06T04:48:26.123Z,52.18
2022-12-06T04:50:52.659Z,52.44
2022-12-06T04:53:19.040Z,52.32
2022-12-06T04:55:46.960Z,52.21
2022-12-06T04:58:13.872Z,52.50
2022-12-06T05:00:44.708Z,52.88
2022-12-06T05:03:14.830Z,52.54
2022-12-06T05:05:42.632Z,52.37
2022-12-06T05:08:09.857Z,52.56
2022-12-06T05:10:38.057Z,52.64
2022-12-06T05:13:05.543Z,52.78
2022-12-06T05:15:33.145Z,53.17
2022-12-06T05:17:59.809Z,52.23
2022-12-06T05:20:26.353Z,52.31
2022-12-06T05:22:53.134Z,52.78
2022-12-06T05:25:20.797Z,52.54
2022-12-06T05:27:47.308Z,52.68
2022-12-06T05:30:14.071Z,52.55
2022-12-06T05:32:40.568Z,52.65
2022-12-06T05:35:08.253Z,52.67
2022-12-06T05:37:34.600Z,53.11
2022-12-06T05:40:01.178Z,53.19
2022-12-06T05:42:27.876Z,53.13
2022-12-06T05:44:54.424Z,52.82
2022-12-06T05:47:20.702Z,52.52
2022-12-06T05:49:47.025Z,53.13
2022-12-06T05:52:13.521Z,52.83
2022-12-06T05:54:40.047Z,52.96
2022-12-06T05:57:06.543Z,52.48
2022-12-06T05:59:33.678Z,53.52
2022-12-06T06:02:02.475Z,53.05
2022-12-06T06:04:29.109Z,52.59
2022-12-06T06:06:55.473Z,52.89
2022-12-06T06:09:22.207Z,52.79
2022-12-06T06:11:48.551Z,53.09
2022-12-06T06:14:14.918Z,53.24
2022-12-06T06:16:41.482Z,53.05
2022-12-06T06:19:08.205Z,53.09
2022-12-06T06:21:34.851Z,52.66
2022-12-06T06:24:01.404Z,53.17
2022-12-06T06:26:27.851Z,53.08
2022-12-06T06:28:54.364Z,53.44
2022-12-06T06:31:20.767Z,53.39
2022-12-06T06:33:47.726Z,53.31
2022-12-06T06:36:14.290Z,52.73
2022-12-06T06:38:40.769Z,53.21
2022-12-06T06:41:07.399Z,53.27
2022-12-06T06:43:33.912Z,52.67
2022-12-06T06:46:03.488Z,53.25
2022-12-06T06:48:35.022Z,53.25
2022-12-06T06:51:07.497Z,52.94
2022-12-06T06:53:34.532Z,53.32
2022-12-06T06:56:01.083Z,53.13
2022-12-06T06:58:27.445Z,52.78
2022-12-06T07:00:58.539Z,53.07
2022-12-06T07:03:26.535Z,53.01
2022-12-06T07:05:54.747Z,53.58
2022-12-06T07:08:22.145Z,52.96
2022-12-06T07:10:49.284Z,52.99
2022-12-06T07:13:17.629Z,52.75
2022-12-06T07:15:44.467Z,52.84
2022-12-06T07:18:11.069Z,52.66
2022-12-06T07:20:37.400Z,53.17
2022-12-06T07:23:03.799Z,53.31
2022-12-06T07:25:31.924Z,53.19
2022-12-06T07:27:58.429Z,53.18
2022-12-06T07:30:27.556Z,53.56
2022-12-06T07:32:54.756Z,53.10
2022-12-06T07:35:21.734Z,52.89
2022-12-06T07:37:48.177Z,52.96
2022-12-06T07:40:16.861Z,53.55
2022-12-06T07:43:02.014Z,53.48
2022-12-06T07:45:28.999Z,53.56
2022-12-06T07:47:55.393Z,53.64
2022-12-06T07:50:25.085Z,53.86
2022-12-06T07:52:51.663Z,53.37
2022-12-06T07:55:21.121Z,53.23
2022-12-06T07:57:47.486Z,53.67
2022-12-06T08:00:16.117Z,53.51
2022-12-06T08:02:43.163Z,53.66
2022-12-06T08:05:10.725Z,53.34
2022-12-06T08:07:37.454Z,53.00
2022-12-06T08:10:05.034Z,53.56
2022-12-06T08:12:32.105Z,53.49
2022-12-06T08:15:00.039Z,53.09
2022-12-06T08:17:27.296Z,52.89
2022-12-06T08:19:53.717Z,53.04
2022-12-06T08:22:20.292Z,53.64
2022-12-06T08:24:46.576Z,53.78
2022-12-06T08:27:12.969Z,53.59
2022-12-06T08:29:39.324Z,53.60
2022-12-06T08:32:05.818Z,53.65
2022-12-06T08:34:32.118Z,53.35
2022-12-06T08:37:03.107Z,53.21
2022-12-06T08:39:30.120Z,53.34
2022-12-06T08:41:58.054Z,53.10
2022-12-06T08:44:28.475Z,53.44
2022-12-06T08:46:56.239Z,53.03
2022-12-06T08:49:24.364Z,53.09
2022-12-06T08:51:52.678Z,53.04
2022-12-06T08:54:22.804Z,53.35
2022-12-06T08:56:50.589Z,53.28
2022-12-06T08:59:17.962Z,53.64
2022-12-06T09:01:45.325Z,53.20
2022-12-06T09:04:12.665Z,53.45
2022-12-06T09:06:41.475Z,53.42
2022-12-06T09:09:09.894Z,53.39
2022-12-06T09:11:37.286Z,53.01
2022-12-06T09:14:03.919Z,53.38
2022-12-06T09:16:30.352Z,53.30
2022-12-06T09:18:57.711Z,53.69
2022-12-06T09:21:28.918Z,53.30
2022-12-06T09:23:56.595Z,53.25
2022-12-06T09:26:23.515Z,53.79
2022-12-06T09:28:50.869Z,53.38
2022-12-06T09:31:18.957Z,53.26
2022-12-06T09:33:45.770Z,53.23
2022-12-06T09:36:18.324Z,53.47
2022-12-06T09:38:47.268Z,53.28
2022-12-06T09:41:40.161Z,53.21
2022-12-06T09:44:19.149Z,53.40
2022-12-06T09:47:31.696Z,53.50
2022-12-06T09:50:13.513Z,53.75
2022-12-06T09:53:14.206Z,53.52
2022-12-06T09:55:55.483Z,53.38
2022-12-06T09:58:49.885Z,53.74
2022-12-06T10:01:27.259Z,53.88
2022-12-06T10:04:17.849Z,53.11
2022-12-06T10:07:19.484Z,53.91
2022-12-06T10:10:30.428Z,54.21
2022-12-06T10:13:10.446Z,54.30
2022-12-06T10:16:14.685Z,54.01
2022-12-06T10:19:01.289Z,53.57
2022-12-06T10:21:37.125Z,53.74
2022-12-06T10:24:31.319Z,53.97
2022-12-06T10:27:09.904Z,53.73
2022-12-06T10:29:53.402Z,53.68
2022-12-06T10:32:44.569Z,53.10
2022-12-06T10:35:29.986Z,53.44
2022-12-06T10:38:47.815Z,53.62
2022-12-06T10:41:44.584Z,53.75
2022-12-06T10:44:37.207Z,53.52
2022-12-06T10:47:13.080Z,53.23
2022-12-06T10:49:39.568Z,53.41
2022-12-06T10:52:17.997Z,53.51
2022-12-06T10:54:55.733Z,53.29
2022-12-06T10:57:32.171Z,53.27
2022-12-06T11:00:05.253Z,53.12
2022-12-06T11:03:08.283Z,53.25
2022-12-06T11:05:41.281Z,53.20
2022-12-06T11:08:21.114Z,53.16
2022-12-06T11:10:48.244Z,53.31
2022-12-06T11:13:29.302Z,53.05
2022-12-06T11:16:20.628Z,53.11
2022-12-06T11:18:48.527Z,53.49
2022-12-06T11:21:36.974Z,53.60
2022-12-06T11:24:15.636Z,53.11
2022-12-06T11:26:48.558Z,53.67
2022-12-06T11:29:16.266Z,52.99
2022-12-06T11:31:46.279Z,53.11
2022-12-06T11:34:23.215Z,53.08
2022-12-06T11:36:58.267Z,53.06
2022-12-06T11:39:27.350Z,53.41
2022-12-06T11:41:56.689Z,53.30
2022-12-06T11:44:26.565Z,52.85
2022-12-06T11:46:59.921Z,53.21
2022-12-06T11:49:40.107Z,53.18
2022-12-06T11:52:13.148Z,53.35
2022-12-06T11:54:49.943Z,52.98
2022-12-06T11:57:30.462Z,53.01
2022-12-06T12:00:22.219Z,53.01
2022-12-06T12:02:51.424Z,52.78
2022-12-06T12:05:38.638Z,52.72
2022-12-06T12:08:08.117Z,53.05
2022-12-06T12:10:38.772Z,53.02
2022-12-06T12:13:29.816Z,52.70
2022-12-06T12:16:00.597Z,53.09
2022-12-06T12:18:36.792Z,52.53
2022-12-06T12:21:06.293Z,52.62
2022-12-06T12:23:36.947Z,52.26
2022-12-06T12:26:13.627Z,52.67
2022-12-06T12:28:41.883Z,52.59
2022-12-06T12:31:20.658Z,52.89
2022-12-06T12:33:47.584Z,52.67
2022-12-06T12:36:26.463Z,53.09
2022-12-06T12:39:00.706Z,52.73
2022-12-06T12:41:42.019Z,53.00
2022-12-06T12:44:38.522Z,52.44
2022-12-06T12:47:20.378Z,52.87
2022-12-06T12:50:18.568Z,52.25
2022-12-06T12:52:45.483Z,52.35
2022-12-06T12:55:21.990Z,52.68
2022-12-06T12:57:51.099Z,52.56
2022-12-06T13:00:26.146Z,52.65
2022-12-06T13:03:00.421Z,52.44
2022-12-06T13:05:34.328Z,52.07
2022-12-06T13:08:19.816Z,52.46
2022-12-06T13:10:52.827Z,52.30
2022-12-06T13:13:28.809Z,52.16
2022-12-06T13:15:58.196Z,52.64
2022-12-06T13:18:46.761Z,52.79
2022-12-06T13:21:24.562Z,52.38
2022-12-06T13:23:54.989Z,52.50
2022-12-06T13:26:29.547Z,52.68
2022-12-06T13:29:03.821Z,52.51
2022-12-06T13:31:36.822Z,52.06
2022-12-06T13:34:17.961Z,52.11
2022-12-06T13:36:44.481Z,52.59
2022-12-06T13:39:36.356Z,52.61
2022-12-06T13:42:19.368Z,52.34
2022-12-06T13:44:48.659Z,52.05
2022-12-06T13:47:27.194Z,51.83
2022-12-06T13:50:03.601Z,51.22
2022-12-06T13:52:42.865Z,51.05
2022-12-06T13:55:24.628Z,50.79
2022-12-06T13:58:19.028Z,51.44
2022-12-06T14:00:48.337Z,51.69
2022-12-06T14:03:17.520Z,50.99
2022-12-06T14:06:13.943Z,51.01
2022-12-06T14:08:41.432Z,51.44
2022-12-06T14:11:14.353Z,51.57
2022-12-06T14:13:43.517Z,51.19
2022-12-06T14:16:17.046Z,51.29
2022-12-06T14:18:43.919Z,51.10
2022-12-06T14:21:23.701Z,51.17
2022-12-06T14:23:50.358Z,51.40
2022-12-06T14:26:30.229Z,51.57
2022-12-06T14:28:59.154Z,51.45
2022-12-06T14:31:36.276Z,51.43
2022-12-06T14:34:04.840Z,50.99
2022-12-06T14:36:34.136Z,51.32
2022-12-06T14:39:09.279Z,51.00
2022-12-06T14:41:57.093Z,51.21
2022-12-06T14:44:31.930Z,50.74
2022-12-06T14:46:58.969Z,51.12
2022-12-06T14:49:46.547Z,50.98
2022-12-06T14:52:31.156Z,50.84
2022-12-06T14:55:17.406Z,50.97
2022-12-06T14:57:46.906Z,50.98
2022-12-06T15:00:36.401Z,50.93
2022-12-06T15:03:15.943Z,50.96
2022-12-06T15:05:45.549Z,50.98
2022-12-06T15:08:33.686Z,51.43
2022-12-06T15:11:04.761Z,51.28
2022-12-06T15:13:31.952Z,51.41
2022-12-06T15:16:11.663Z,51.69
2022-12-06T15:18:41.131Z,51.76
2022-12-06T15:21:17.550Z,52.01
2022-12-06T15:23:55.238Z,51.64
2022-12-06T15:26:23.420Z,51.92
2022-12-06T15:28:50.707Z,51.85
2022-12-06T15:31:24.434Z,51.96
2022-12-06T15:33:52.770Z,52.22
2022-12-06T15:36:27.156Z,52.31
2022-12-06T15:38:53.529Z,52.10
2022-12-06T15:41:23.224Z,52.05
2022-12-06T15:43:50.676Z,52.26
2022-12-06T15:46:25.473Z,52.27
2022-12-06T15:48:53.630Z,52.16
2022-12-06T15:51:24.946Z,52.40
2022-12-06T15:53:51.518Z,52.22
2022-12-06T15:56:20.390Z,51.97
2022-12-06T15:58:47.417Z,52.13
2022-12-06T16:01:23.801Z,52.46
2022-12-06T16:03:52.087Z,52.42
2022-12-06T16:06:20.034Z,51.48
2022-12-06T16:08:47.445Z,52.08
2022-12-06T16:11:16.826Z,52.15
2022-12-06T16:13:44.673Z,51.86
2022-12-06T16:16:11.824Z,52.05
2022-12-06T16:18:40.693Z,51.74
2022-12-06T16:21:08.179Z,51.83
2022-12-06T16:26:43.778Z,52.01
2022-12-06T16:29:14.702Z,51.52
2022-12-06T16:31:41.436Z,51.77
2022-12-06T16:34:08.860Z,51.52
2022-12-06T16:36:53.692Z,51.93
2022-12-06T16:39:20.054Z,51.68
2022-12-06T16:41:46.840Z,51.66
2022-12-06T16:44:13.198Z,51.80
2022-12-06T16:46:39.893Z,51.58
2022-12-06T16:49:45.183Z,52.03
2022-12-06T16:52:08.423Z,51.81
2022-12-06T16:54:35.930Z,51.41
2022-12-06T16:57:02.512Z,51.81
2022-12-06T16:59:28.940Z,51.50
2022-12-06T17:01:55.528Z,51.64
2022-12-06T17:04:22.389Z,52.02
2022-12-06T17:06:49.013Z,52.16
2022-12-06T17:09:16.111Z,52.03
2022-12-06T17:12:01.506Z,52.12
2022-12-06T17:14:28.384Z,51.91
2022-12-06T17:16:55.388Z,52.10
2022-12-06T17:19:24.303Z,52.35
2022-12-06T17:21:52.553Z,52.71
2022-12-06T17:24:20.888Z,52.36
2022-12-06T17:26:47.374Z,52.41
2022-12-06T17:29:14.053Z,52.39
2022-12-06T17:31:40.779Z,52.35
2022-12-06T17:34:10.100Z,52.57
2022-12-06T17:36:36.601Z,52.32
2022-12-06T17:39:06.966Z,52.15
2022-12-06T17:41:52.372Z,52.09
2022-12-06T17:44:19.524Z,52.42
2022-12-06T17:46:45.887Z,52.40
2022-12-06T17:49:22.028Z,52.24
2022-12-06T17:51:48.831Z,52.57
2022-12-06T17:54:15.748Z,52.04
2022-12-06T17:56:47.612Z,52.56
2022-12-06T17:59:17.557Z,52.84
2022-12-06T18:02:14.170Z,52.30
2022-12-06T18:04:31.373Z,52.75
2022-12-06T18:06:58.444Z,52.71
2022-12-06T18:09:24.935Z,52.56
2022-12-06T18:11:51.545Z,52.37
2022-12-06T18:14:18.703Z,52.60
2022-12-06T18:16:45.992Z,52.67
2022-12-06T18:19:16.882Z,52.42
2022-12-06T18:21:43.987Z,52.38
2022-12-06T18:24:24.769Z,52.57
2022-12-06T18:26:53.183Z,52.60
2022-12-06T18:29:22.929Z,52.47
2022-12-06T18:31:49.712Z,52.70
2022-12-06T18:34:16.338Z,52.63
2022-12-06T18:36:42.765Z,52.34
2022-12-06T18:39:15.416Z,52.36
2022-12-06T18:41:46.317Z,52.37
2022-12-06T18:44:13.525Z,52.65
2022-12-06T18:46:42.280Z,52.49
2022-12-06T18:49:10.629Z,52.46
2022-12-06T18:51:38.486Z,52.43
2022-12-06T18:54:05.574Z,52.18
2022-12-06T18:56:33.463Z,52.29
2022-12-06T18:59:01.701Z,52.36
2022-12-06T19:01:30.793Z,52.27
2022-12-06T19:04:00.974Z,52.23
2022-12-06T19:06:30.341Z,52.28
2022-12-06T19:09:00.051Z,52.22
2022-12-06T19:11:26.638Z,52.23
2022-12-06T19:13:55.771Z,52.28
2022-12-06T19:16:26.972Z,51.90
2022-12-06T19:18:55.511Z,52.07
2022-12-06T19:21:22.221Z,52.40
2022-12-06T19:23:49.036Z,51.96
2022-12-06T19:26:15.612Z,52.08
2022-12-06T19:28:42.163Z,51.99
2022-12-06T19:31:13.913Z,52.10
2022-12-06T19:33:45.612Z,52.29
2022-12-06T19:36:15.134Z,52.42
2022-12-06T19:38:42.354Z,52.30
2022-12-06T19:41:12.410Z,52.43
2022-12-06T19:43:58.897Z,52.41
2022-12-06T19:46:27.824Z,52.53
2022-12-06T19:49:00.535Z,52.63
2022-12-06T19:51:28.986Z,51.92
2022-12-06T19:53:58.185Z,52.53
2022-12-06T19:56:26.750Z,52.37
2022-12-06T19:58:54.200Z,52.35
2022-12-06T20:01:24.874Z,52.36
2022-12-06T20:03:53.007Z,52.40
2022-12-06T20:06:22.204Z,52.75
2022-12-06T20:08:49.662Z,52.30
2022-12-06T20:11:52.532Z,52.61
2022-12-06T20:14:19.888Z,52.32
2022-12-06T20:16:46.948Z,52.50
2022-12-06T20:19:17.872Z,52.71
2022-12-06T20:21:45.004Z,52.51
2022-12-06T20:24:15.459Z,52.63
2022-12-06T20:26:42.562Z,52.67
2022-12-06T20:29:10.443Z,52.58
2022-12-06T20:31:36.973Z,52.85
2022-12-06T20:34:07.876Z,52.46
2022-12-06T20:36:37.685Z,52.64
2022-12-06T20:39:07.290Z,52.47
2022-12-06T20:41:34.134Z,52.56
2022-12-06T20:44:03.095Z,52.31
2022-12-06T20:46:31.765Z,52.71
2022-12-06T20:49:04.410Z,52.77
2022-12-06T20:51:37.420Z,52.59
2022-12-06T20:54:06.562Z,52.76
2022-12-06T20:56:35.806Z,52.75
2022-12-06T20:59:03.518Z,52.82
2022-12-06T21:01:33.539Z,52.79
2022-12-06T21:04:00.086Z,52.59
2022-12-06T21:06:26.993Z,52.94
2022-12-06T21:08:54.256Z,52.92
2022-12-06T21:11:23.822Z,52.85
2022-12-06T21:13:56.186Z,52.94
2022-12-06T21:16:26.090Z,52.67
2022-12-06T21:18:57.452Z,52.51
2022-12-06T21:21:26.761Z,52.67
2022-12-06T21:23:53.104Z,52.64
2022-12-06T21:26:20.031Z,52.87
2022-12-06T21:28:46.416Z,53.01
2022-12-06T21:31:12.870Z,52.87
2022-12-06T21:33:39.515Z,52.96
2022-12-06T21:36:07.127Z,52.83
2022-12-06T21:38:36.529Z,53.02
2022-12-06T21:41:07.833Z,53.07
2022-12-06T21:43:35.874Z,53.15
2022-12-06T21:46:07.953Z,53.24
2022-12-06T21:48:34.954Z,53.36
2022-12-06T21:51:06.594Z,53.22
2022-12-06T21:53:33.993Z,53.00
2022-12-06T21:56:06.029Z,53.07
2022-12-06T21:58:32.420Z,53.06
2022-12-06T22:01:05.044Z,53.66
2022-12-06T22:03:31.468Z,53.24
2022-12-06T22:05:58.107Z,53.36
2022-12-06T22:08:24.598Z,53.48
2022-12-06T22:10:52.735Z,53.61
2022-12-06T22:13:19.128Z,53.18
2022-12-06T22:15:46.083Z,53.36
2022-12-06T22:18:14.037Z,52.78
2022-12-06T22:20:40.728Z,53.29
2022-12-06T22:23:07.049Z,52.85
2022-12-06T22:25:33.487Z,52.88
2022-12-06T22:27:59.837Z,53.47
2022-12-06T22:30:26.682Z,53.61
2022-12-06T22:32:53.052Z,53.18
2022-12-06T22:35:21.549Z,53.15
2022-12-06T22:37:48.023Z,53.28
2022-12-06T22:40:14.554Z,53.36
2022-12-06T22:42:41.118Z,53.19
2022-12-06T22:45:08.925Z,53.48
2022-12-06T22:47:35.375Z,53.75
2022-12-06T22:50:02.207Z,53.42
2022-12-06T22:52:29.148Z,53.62
2022-12-06T22:54:55.481Z,53.22
2022-12-06T22:57:21.850Z,53.64
2022-12-06T22:59:48.159Z,53.67
2022-12-06T23:02:14.648Z,53.43
2022-12-06T23:04:41.249Z,53.51
2022-12-06T23:07:07.682Z,53.45
2022-12-06T23:09:35.807Z,53.59
2022-12-06T23:12:02.237Z,53.27
2022-12-06T23:14:28.553Z,53.60
2022-12-06T23:16:54.927Z,54.00
2022-12-06T23:19:21.258Z,54.31
2022-12-06T23:21:48.041Z,53.71
2022-12-06T23:24:14.974Z,53.94
2022-12-06T23:26:44.332Z,53.88
2022-12-06T23:29:11.451Z,53.78
2022-12-06T23:31:41.578Z,53.67
2022-12-06T23:34:12.638Z,53.95
2022-12-06T23:36:39.288Z,53.78
2022-12-06T23:39:06.324Z,53.84
2022-12-06T23:41:33.791Z,53.55
2022-12-06T23:44:00.890Z,53.97
2022-12-06T23:46:29.983Z,54.00
2022-12-06T23:48:57.152Z,53.81
2022-12-06T23:51:30.795Z,53.73
2022-12-06T23:53:59.025Z,53.61
2022-12-06T23:56:28.525Z,53.47
2022-12-06T23:58:55.358Z,53.94
